createdAt,value
2022-09-30T00:02:05.844Z,6.60
2022-09-30T00:04:35.315Z,5.53
2022-09-30T00:07:04.928Z,6.97
2022-09-30T00:09:34.568Z,5.68
2022-09-30T00:12:04.678Z,4.63
2022-09-30T00:14:36.694Z,5.93
2022-09-30T00:17:06.107Z,5.35
2022-09-30T00:19:35.544Z,6.20
2022-09-30T00:22:05.000Z,5.38
2022-09-30T00:24:34.412Z,3.45
2022-09-30T00:27:03.834Z,4.65
2022-09-30T00:29:36.110Z,5.45
2022-09-30T00:32:05.629Z,5.03
2022-09-30T00:34:35.069Z,4.97
2022-09-30T00:37:04.770Z,5.85
2022-09-30T00:39:35.175Z,5.43
2022-09-30T00:42:06.596Z,5.30
2022-09-30T00:44:56.062Z,4.95
2022-09-30T00:47:48.128Z,4.93
2022-09-30T00:50:28.109Z,6.25
2022-09-30T00:52:59.983Z,4.93
2022-09-30T00:55:38.416Z,6.35
2022-09-30T00:58:09.016Z,6.63
2022-09-30T01:00:41.121Z,4.28
2022-09-30T01:03:10.583Z,5.82
2022-09-30T01:05:40.087Z,3.85
2022-09-30T01:08:09.549Z,4.78
2022-09-30T01:10:38.968Z,5.18
2022-09-30T01:13:08.391Z,6.80
2022-09-30T01:15:47.266Z,4.57
2022-09-30T01:18:21.312Z,7.43
2022-09-30T01:21:02.438Z,4.97
2022-09-30T01:23:50.619Z,4.40
2022-09-30T01:26:31.097Z,4.65
2022-09-30T01:29:15.280Z,5.25
2022-09-30T01:31:52.396Z,5.68
2022-09-30T01:34:26.453Z,5.00
2022-09-30T01:37:04.823Z,5.05
2022-09-30T01:39:39.999Z,5.05
2022-09-30T01:42:13.519Z,4.15
2022-09-30T01:44:48.591Z,5.00
2022-09-30T01:47:23.037Z,5.47
2022-09-30T01:49:53.773Z,4.55
2022-09-30T01:52:25.961Z,5.38
2022-09-30T01:54:57.093Z,5.22
2022-09-30T01:59:59.140Z,6.45
2022-09-30T02:02:32.103Z,4.30
2022-09-30T02:05:02.711Z,4.65
2022-09-30T02:07:34.003Z,5.10
2022-09-30T02:10:04.560Z,4.70
2022-09-30T02:12:36.071Z,4.07
2022-09-30T02:15:06.847Z,4.45
2022-09-30T02:17:40.620Z,4.72
2022-09-30T02:20:11.608Z,3.90
2022-09-30T02:22:44.639Z,4.63
2022-09-30T02:25:18.899Z,5.95
2022-09-30T02:27:52.265Z,4.25
2022-09-30T02:30:21.648Z,4.72
2022-09-30T02:32:55.116Z,5.78
2022-09-30T02:35:26.888Z,3.85
2022-09-30T02:37:57.285Z,4.32
2022-09-30T02:40:28.525Z,5.65
2022-09-30T02:45:27.414Z,5.97
2022-09-30T02:48:07.857Z,7.75
2022-09-30T02:50:38.913Z,6.65
2022-09-30T02:53:18.609Z,4.53
2022-09-30T02:55:54.310Z,5.38
2022-09-30T02:58:26.028Z,6.50
2022-09-30T03:00:55.702Z,4.78
2022-09-30T03:03:29.137Z,4.78
2022-09-30T03:05:58.747Z,5.65
2022-09-30T03:08:28.752Z,5.93
2022-09-30T03:10:58.235Z,3.97
2022-09-30T03:13:46.904Z,5.85
2022-09-30T03:16:19.854Z,7.10
2022-09-30T03:19:00.052Z,5.90
2022-09-30T03:21:36.396Z,8.13
2022-09-30T03:24:31.929Z,5.60
2022-09-30T03:27:07.399Z,5.97
2022-09-30T03:29:39.158Z,6.53
2022-09-30T03:32:13.564Z,4.85
2022-09-30T03:34:55.438Z,5.38
2022-09-30T03:37:28.500Z,6.72
2022-09-30T03:39:59.500Z,6.32
2022-09-30T03:42:30.028Z,6.47
2022-09-30T03:45:02.560Z,7.80
2022-09-30T03:47:32.841Z,5.80
2022-09-30T03:50:06.083Z,7.07
2022-09-30T03:52:35.530Z,8.52
2022-09-30T03:55:08.652Z,5.93
2022-09-30T03:57:38.146Z,6.28
2022-09-30T04:00:09.142Z,5.85
2022-09-30T04:02:39.007Z,5.93
2022-09-30T04:05:11.276Z,5.45
2022-09-30T04:07:40.688Z,5.68
2022-09-30T04:10:11.231Z,7.35
2022-09-30T04:12:40.660Z,7.78
2022-09-30T04:15:11.311Z,7.07
2022-09-30T04:17:40.749Z,6.95
2022-09-30T04:20:12.879Z,8.07
2022-09-30T04:22:42.287Z,7.45
2022-09-30T04:25:12.280Z,9.55
2022-09-30T04:27:41.721Z,7.88
2022-09-30T04:30:12.176Z,5.97
2022-09-30T04:32:42.060Z,6.25
2022-09-30T04:35:14.258Z,6.85
2022-09-30T04:37:47.008Z,6.70
2022-09-30T04:40:17.234Z,8.25
2022-09-30T04:42:47.644Z,6.37
2022-09-30T04:45:17.211Z,6.80
2022-09-30T04:47:47.415Z,7.97
2022-09-30T04:50:19.673Z,6.93
2022-09-30T04:52:49.079Z,10.07
2022-09-30T04:55:18.594Z,14.40
2022-09-30T04:57:48.025Z,17.17
2022-09-30T05:00:17.466Z,11.57
2022-09-30T05:02:47.406Z,12.25
2022-09-30T05:05:19.761Z,9.98
2022-09-30T05:07:49.185Z,9.32
2022-09-30T05:10:19.159Z,8.70
2022-09-30T05:12:48.942Z,8.43
2022-09-30T05:15:18.371Z,7.80
2022-09-30T05:17:48.011Z,8.57
2022-09-30T05:20:22.011Z,11.77
2022-09-30T05:22:56.082Z,9.13
2022-09-30T05:25:26.189Z,9.77
2022-09-30T05:27:55.744Z,7.70
2022-09-30T05:30:25.160Z,7.45
2022-09-30T05:32:54.628Z,6.88
2022-09-30T05:35:26.641Z,9.30
2022-09-30T05:37:56.081Z,8.10
2022-09-30T05:40:25.512Z,8.15
2022-09-30T05:42:54.920Z,6.50
2022-09-30T05:45:24.374Z,9.18
2022-09-30T05:47:54.669Z,9.40
2022-09-30T05:50:27.042Z,7.50
2022-09-30T05:52:57.517Z,8.43
2022-09-30T05:55:27.293Z,9.18
2022-09-30T05:57:56.731Z,11.75
2022-09-30T06:00:26.448Z,11.90
2022-09-30T06:02:55.889Z,9.88
2022-09-30T06:05:27.941Z,11.48
2022-09-30T06:07:57.363Z,8.85
2022-09-30T06:10:26.777Z,8.35
2022-09-30T06:12:56.242Z,6.68
2022-09-30T06:15:25.709Z,8.15
2022-09-30T06:17:55.692Z,8.23
2022-09-30T06:20:27.761Z,7.38
2022-09-30T06:22:57.333Z,9.13
2022-09-30T06:25:27.942Z,8.05
2022-09-30T06:27:57.401Z,8.48
2022-09-30T06:30:29.464Z,8.88
2022-09-30T06:33:01.317Z,9.65
2022-09-30T06:35:33.322Z,9.02
2022-09-30T06:38:02.754Z,8.50
2022-09-30T06:40:32.192Z,8.70
2022-09-30T06:43:02.165Z,8.00
2022-09-30T06:45:33.416Z,8.20
2022-09-30T06:48:03.379Z,8.25
2022-09-30T06:50:35.548Z,7.40
2022-09-30T06:53:06.243Z,7.60
2022-09-30T06:55:36.606Z,8.50
2022-09-30T06:58:06.201Z,7.30
2022-09-30T07:00:36.656Z,8.07
2022-09-30T07:03:09.795Z,9.48
2022-09-30T07:05:41.805Z,8.65
2022-09-30T07:08:11.217Z,8.20
2022-09-30T07:10:40.893Z,8.93
2022-09-30T07:13:10.836Z,11.55
2022-09-30T07:15:40.348Z,8.65
2022-09-30T07:18:11.874Z,7.40
2022-09-30T07:20:43.928Z,7.55
2022-09-30T07:23:13.350Z,8.55
2022-09-30T07:25:42.790Z,7.78
2022-09-30T07:28:14.110Z,7.53
2022-09-30T07:30:47.228Z,6.40
2022-09-30T07:33:17.097Z,6.45
2022-09-30T07:35:55.672Z,6.35
2022-09-30T07:38:25.847Z,6.93
2022-09-30T07:40:57.068Z,6.63
2022-09-30T07:43:28.018Z,7.03
2022-09-30T07:45:58.099Z,6.18
2022-09-30T07:48:40.050Z,7.30
2022-09-30T07:51:12.985Z,6.15
2022-09-30T07:53:42.892Z,8.82
2022-09-30T07:56:12.498Z,7.80
2022-09-30T07:58:42.159Z,6.75
2022-09-30T08:01:11.687Z,7.47
2022-09-30T08:03:41.998Z,7.72
2022-09-30T08:06:14.773Z,7.27
2022-09-30T08:08:44.270Z,6.70
2022-09-30T08:11:14.029Z,6.78
2022-09-30T08:13:46.241Z,7.57
2022-09-30T08:16:15.706Z,8.80
2022-09-30T08:18:45.141Z,5.82
2022-09-30T08:21:17.178Z,7.47
2022-09-30T08:23:46.602Z,5.57
2022-09-30T08:26:16.782Z,7.85
2022-09-30T08:28:47.127Z,10.32
2022-09-30T08:31:17.758Z,6.25
2022-09-30T08:33:47.251Z,6.65
2022-09-30T08:36:20.188Z,6.05
2022-09-30T08:38:49.620Z,7.13
2022-09-30T08:41:26.019Z,7.53
2022-09-30T08:44:01.076Z,7.85
2022-09-30T08:46:35.508Z,15.63
2022-09-30T08:49:21.039Z,7.93
2022-09-30T08:51:53.188Z,7.97
2022-09-30T08:54:25.515Z,7.25
2022-09-30T08:56:54.952Z,8.63
2022-09-30T08:59:30.927Z,8.57
2022-09-30T09:02:04.162Z,8.63
2022-09-30T09:04:33.712Z,7.38
2022-09-30T09:07:09.805Z,8.38
2022-09-30T09:09:46.130Z,7.47
2022-09-30T09:12:27.544Z,7.75
2022-09-30T09:15:04.415Z,10.52
2022-09-30T09:17:54.177Z,9.00
2022-09-30T09:20:34.738Z,8.43
2022-09-30T09:23:06.790Z,12.05
2022-09-30T09:25:36.236Z,10.18
2022-09-30T09:28:06.559Z,12.95
2022-09-30T09:30:39.370Z,11.32
2022-09-30T09:33:20.350Z,13.40
2022-09-30T09:35:51.285Z,12.73
2022-09-30T09:38:31.814Z,11.35
2022-09-30T09:41:10.960Z,10.18
2022-09-30T09:43:51.428Z,12.60
2022-09-30T09:46:24.768Z,11.27
2022-09-30T09:49:13.776Z,12.20
2022-09-30T09:51:47.202Z,10.60
2022-09-30T09:54:21.205Z,8.68
2022-09-30T09:56:53.021Z,10.18
2022-09-30T09:59:23.106Z,9.15
2022-09-30T10:01:54.246Z,9.13
2022-09-30T10:06:56.064Z,11.07
2022-09-30T10:09:38.023Z,9.60
2022-09-30T10:12:31.174Z,10.05
2022-09-30T10:15:03.232Z,9.52
2022-09-30T10:17:33.371Z,9.38
2022-09-30T10:20:06.309Z,9.60
2022-09-30T10:22:36.241Z,9.32
2022-09-30T10:25:21.443Z,10.30
2022-09-30T10:27:53.252Z,9.50
2022-09-30T10:30:37.285Z,8.43
2022-09-30T10:33:06.831Z,10.38
2022-09-30T10:35:36.250Z,10.68
2022-09-30T10:38:06.160Z,9.88
2022-09-30T10:40:38.182Z,9.35
2022-09-30T10:43:08.130Z,7.63
2022-09-30T10:45:41.289Z,8.20
2022-09-30T10:48:16.165Z,7.80
2022-09-30T10:50:47.149Z,8.18
2022-09-30T10:53:18.550Z,10.50
2022-09-30T10:55:50.720Z,10.80
2022-09-30T10:58:25.998Z,10.70
2022-09-30T11:00:57.749Z,9.60
2022-09-30T11:03:29.757Z,9.32
2022-09-30T11:05:59.307Z,8.65
2022-09-30T11:08:31.865Z,10.00
2022-09-30T11:11:10.241Z,9.15
2022-09-30T11:13:41.026Z,8.45
2022-09-30T11:16:15.208Z,8.52
2022-09-30T11:18:46.316Z,8.30
2022-09-30T11:23:47.258Z,6.60
2022-09-30T11:26:23.453Z,9.93
2022-09-30T11:28:59.098Z,8.80
2022-09-30T11:31:33.036Z,8.15
2022-09-30T11:34:21.775Z,8.18
2022-09-30T11:36:54.072Z,8.18
2022-09-30T11:40:00.352Z,7.05
2022-09-30T11:42:35.893Z,9.75
2022-09-30T11:45:09.082Z,8.50
2022-09-30T11:47:53.598Z,7.13
2022-09-30T11:50:35.258Z,7.50
2022-09-30T11:53:14.399Z,9.55
2022-09-30T11:55:49.529Z,7.75
2022-09-30T11:58:40.533Z,7.18
2022-09-30T12:01:17.837Z,6.00
2022-09-30T12:03:49.106Z,6.30
2022-09-30T12:06:21.172Z,6.57
2022-09-30T12:08:52.264Z,5.30
2022-09-30T12:13:54.920Z,5.35
2022-09-30T12:16:26.868Z,5.57
2022-09-30T12:18:58.138Z,5.55
2022-09-30T12:23:59.533Z,3.67
2022-09-30T12:26:29.266Z,5.53
2022-09-30T12:29:15.882Z,4.68
2022-09-30T12:31:58.892Z,4.82
2022-09-30T12:34:36.803Z,9.18
2022-09-30T12:37:17.519Z,4.45
2022-09-30T12:39:57.773Z,3.85
2022-09-30T12:42:35.763Z,4.20
2022-09-30T12:45:30.286Z,2.85
2022-09-30T12:48:00.186Z,4.00
2022-09-30T12:50:30.920Z,4.45
2022-09-30T12:53:01.594Z,6.03
2022-09-30T12:55:32.801Z,3.50
2022-09-30T12:58:02.973Z,3.10
2022-09-30T13:00:37.715Z,3.23
2022-09-30T13:03:08.702Z,3.80
2022-09-30T13:05:50.225Z,2.47
2022-09-30T13:08:45.404Z,4.28
2022-09-30T13:11:34.408Z,4.97
2022-09-30T13:14:13.508Z,4.53
2022-09-30T13:17:05.370Z,4.35
2022-09-30T13:19:36.489Z,3.90
2022-09-30T13:22:36.227Z,2.53
2022-09-30T13:25:06.772Z,2.30
2022-09-30T13:27:36.605Z,4.70
2022-09-30T13:30:08.920Z,4.63
2022-09-30T13:32:42.308Z,4.75
2022-09-30T13:35:34.012Z,4.78
2022-09-30T13:38:20.151Z,3.67
2022-09-30T13:41:01.962Z,4.78
2022-09-30T13:43:34.461Z,3.38
2022-09-30T13:46:09.087Z,4.38
2022-09-30T13:48:42.152Z,3.20
2022-09-30T13:51:14.848Z,4.68
2022-09-30T13:53:46.344Z,1.60
2022-09-30T13:56:19.346Z,4.93
2022-09-30T13:59:22.322Z,3.00
2022-09-30T14:02:10.406Z,3.15
2022-09-30T14:05:19.138Z,2.90
2022-09-30T14:07:54.267Z,2.60
2022-09-30T14:10:40.961Z,4.50
2022-09-30T14:13:27.754Z,4.28
2022-09-30T14:16:06.751Z,2.72
2022-09-30T14:18:45.178Z,2.40
2022-09-30T14:21:25.829Z,3.72
2022-09-30T14:24:00.286Z,3.92
2022-09-30T14:26:41.981Z,3.30
2022-09-30T14:29:14.121Z,2.17
2022-09-30T14:31:46.874Z,3.70
2022-09-30T14:34:17.103Z,3.05
2022-09-30T14:36:49.588Z,3.00
2022-09-30T14:39:20.019Z,3.72
2022-09-30T14:41:52.099Z,3.03
2022-09-30T14:44:23.027Z,2.42
2022-09-30T14:46:55.065Z,1.70
2022-09-30T14:49:29.968Z,1.55
2022-09-30T14:52:03.472Z,1.85
2022-09-30T14:54:33.794Z,2.42
2022-09-30T14:57:04.487Z,4.63
2022-09-30T14:59:35.256Z,2.92
2022-09-30T15:02:05.679Z,3.78
2022-09-30T15:04:36.401Z,2.58
2022-09-30T15:07:12.177Z,1.42
2022-09-30T15:09:43.513Z,2.97
2022-09-30T15:12:14.249Z,3.10
2022-09-30T15:14:48.942Z,4.40
2022-09-30T15:17:21.421Z,3.22
2022-09-30T15:19:50.979Z,2.03
2022-09-30T15:22:23.064Z,4.28
2022-09-30T15:24:52.656Z,4.93
2022-09-30T15:27:23.528Z,4.13
2022-09-30T15:29:59.856Z,4.13
2022-09-30T15:32:29.730Z,3.72
2022-09-30T15:35:00.071Z,2.03
2022-09-30T15:37:33.841Z,3.45
2022-09-30T15:40:16.632Z,2.83
2022-09-30T15:42:49.351Z,3.92
2022-09-30T15:45:34.994Z,1.85
2022-09-30T15:48:07.055Z,2.92
2022-09-30T15:50:41.187Z,5.38
2022-09-30T15:53:25.184Z,3.30
2022-09-30T15:55:55.719Z,4.03
2022-09-30T15:58:37.814Z,1.87
2022-09-30T16:01:16.617Z,1.92
2022-09-30T16:03:54.318Z,3.22
2022-09-30T16:06:28.920Z,1.95
2022-09-30T16:09:02.268Z,3.33
2022-09-30T16:11:36.630Z,2.88
2022-09-30T16:14:07.336Z,3.35
2022-09-30T16:16:37.785Z,3.70
2022-09-30T16:19:07.711Z,4.07
2022-09-30T16:21:50.784Z,3.78
2022-09-30T16:24:48.452Z,2.72
2022-09-30T16:27:30.264Z,4.00
2022-09-30T16:30:00.577Z,5.43
2022-09-30T16:32:30.925Z,4.15
2022-09-30T16:35:00.465Z,4.25
2022-09-30T16:37:29.904Z,4.22
2022-09-30T16:40:04.616Z,3.58
2022-09-30T16:42:34.404Z,2.88
2022-09-30T16:45:04.477Z,3.83
2022-09-30T16:47:33.944Z,8.93
2022-09-30T16:50:03.393Z,10.88
2022-09-30T16:52:32.874Z,10.48
2022-09-30T16:55:04.967Z,10.65
2022-09-30T16:57:34.482Z,13.55
2022-09-30T17:00:04.433Z,12.63
2022-09-30T17:02:34.020Z,13.68
2022-09-30T17:05:03.508Z,13.27
2022-09-30T17:07:33.527Z,11.43
2022-09-30T17:10:05.630Z,13.63
2022-09-30T17:12:35.046Z,10.27
2022-09-30T17:15:04.495Z,10.30
2022-09-30T17:17:33.930Z,12.23
2022-09-30T17:20:03.876Z,9.10
2022-09-30T17:22:33.304Z,8.20
2022-09-30T17:25:05.346Z,7.25
2022-09-30T17:27:34.757Z,7.57
2022-09-30T17:30:04.265Z,6.18
2022-09-30T17:32:33.711Z,7.32
2022-09-30T17:35:03.179Z,5.20
2022-09-30T17:37:32.883Z,8.45
2022-09-30T17:40:25.786Z,8.23
2022-09-30T17:43:07.596Z,9.80
2022-09-30T17:45:37.076Z,11.15
2022-09-30T17:48:07.878Z,13.13
2022-09-30T17:50:37.583Z,10.57
2022-09-30T17:53:07.742Z,11.95
2022-09-30T17:55:39.816Z,10.17
2022-09-30T17:58:09.689Z,12.90
2022-09-30T18:00:39.118Z,10.15
2022-09-30T18:03:09.322Z,11.13
2022-09-30T18:05:38.952Z,8.43
2022-09-30T18:08:08.660Z,6.97
2022-09-30T18:10:41.385Z,6.03
2022-09-30T18:13:11.556Z,6.28
2022-09-30T18:15:41.642Z,7.73
2022-09-30T18:18:11.054Z,8.85
2022-09-30T18:20:44.905Z,6.00
2022-09-30T18:23:14.373Z,6.53
2022-09-30T18:25:46.458Z,6.60
2022-09-30T18:28:16.037Z,8.32
2022-09-30T18:30:46.665Z,8.02
2022-09-30T18:33:17.440Z,7.07
2022-09-30T18:35:47.511Z,8.68
2022-09-30T18:38:17.103Z,6.82
2022-09-30T18:40:49.985Z,7.82
2022-09-30T18:43:20.765Z,6.32
2022-09-30T18:45:56.243Z,10.82
2022-09-30T18:48:26.224Z,7.10
2022-09-30T18:50:55.639Z,6.43
2022-09-30T18:53:25.267Z,7.25
2022-09-30T18:55:57.293Z,7.18
2022-09-30T18:58:27.364Z,8.20
2022-09-30T19:00:56.849Z,10.27
2022-09-30T19:03:26.997Z,14.27
2022-09-30T19:05:56.434Z,15.52
2022-09-30T19:08:26.833Z,11.57
2022-09-30T19:10:59.169Z,12.68
2022-09-30T19:13:29.840Z,10.77
2022-09-30T19:16:05.689Z,12.85
2022-09-30T19:18:35.125Z,9.98
2022-09-30T19:21:10.031Z,8.77
2022-09-30T19:23:39.649Z,9.45
2022-09-30T19:26:14.368Z,9.45
2022-09-30T19:28:43.813Z,8.88
2022-09-30T19:31:15.294Z,9.23
2022-09-30T19:33:54.512Z,8.55
2022-09-30T19:39:10.097Z,6.78
2022-09-30T19:41:46.268Z,6.78
2022-09-30T19:44:19.307Z,8.00
2022-09-30T19:46:50.934Z,9.00
2022-09-30T19:49:21.670Z,8.75
2022-09-30T19:51:52.583Z,11.07
2022-09-30T19:54:36.133Z,9.68
2022-09-30T19:57:12.029Z,7.80
2022-09-30T19:59:41.441Z,8.70
2022-09-30T20:02:12.344Z,8.55
2022-09-30T20:04:43.765Z,8.27
2022-09-30T20:07:16.214Z,9.10
2022-09-30T20:09:46.552Z,10.98
2022-09-30T20:12:18.572Z,9.77
2022-09-30T20:15:00.473Z,11.35
2022-09-30T20:17:30.909Z,12.13
2022-09-30T20:20:12.854Z,9.13
2022-09-30T20:22:42.308Z,10.77
2022-09-30T20:25:12.831Z,7.30
2022-09-30T20:27:51.063Z,7.38
2022-09-30T20:30:21.490Z,6.03
2022-09-30T20:32:50.995Z,6.63
2022-09-30T20:35:21.296Z,7.85
2022-09-30T20:37:51.705Z,9.15
2022-09-30T20:40:21.110Z,8.82
2022-09-30T20:42:54.023Z,10.73
2022-09-30T20:45:26.525Z,12.75
2022-09-30T20:47:56.884Z,10.88
2022-09-30T20:50:37.525Z,8.93
2022-09-30T20:53:11.881Z,8.35
2022-09-30T20:55:43.420Z,10.43
2022-09-30T20:58:15.432Z,9.63
2022-09-30T21:00:45.130Z,9.43
2022-09-30T21:03:15.502Z,8.55
2022-09-30T21:05:44.908Z,10.02
2022-09-30T21:08:14.329Z,9.65
2022-09-30T21:10:43.743Z,8.82
2022-09-30T21:13:16.004Z,8.20
2022-09-30T21:15:45.421Z,7.95
2022-09-30T21:18:14.845Z,8.68
2022-09-30T21:20:44.380Z,8.88
2022-09-30T21:23:17.252Z,14.75
2022-09-30T21:25:49.061Z,13.30
2022-09-30T21:28:22.357Z,12.15
2022-09-30T21:30:51.963Z,10.70
2022-09-30T21:33:22.125Z,9.15
2022-09-30T21:35:52.284Z,9.10
2022-09-30T21:38:25.119Z,7.72
2022-09-30T21:41:00.470Z,7.93
2022-09-30T21:43:34.127Z,7.75
2022-09-30T21:46:04.578Z,8.13
2022-09-30T21:48:35.223Z,9.35
2022-09-30T21:51:04.823Z,7.57
2022-09-30T21:53:34.269Z,9.13
2022-09-30T21:56:04.451Z,7.55
2022-09-30T21:58:36.874Z,7.73
2022-09-30T22:01:07.261Z,9.35
2022-09-30T22:03:38.825Z,7.45
2022-09-30T22:06:09.600Z,6.63
2022-09-30T22:08:40.787Z,7.53
2022-09-30T22:11:11.190Z,7.03
2022-09-30T22:13:45.098Z,7.93
2022-09-30T22:16:19.798Z,7.80
2022-09-30T22:18:49.355Z,5.85
2022-09-30T22:21:18.787Z,6.55
2022-09-30T22:23:49.038Z,10.15
2022-09-30T22:26:19.611Z,11.03
2022-09-30T22:28:55.591Z,14.95
2022-09-30T22:31:26.037Z,20.40
2022-09-30T22:34:09.101Z,17.23
2022-09-30T22:36:51.063Z,9.90
2022-09-30T22:39:20.811Z,7.03
2022-09-30T22:41:50.316Z,6.07
2022-09-30T22:44:23.744Z,6.15
2022-09-30T22:46:53.471Z,6.78
2022-09-30T22:49:23.173Z,6.50
2022-09-30T22:51:52.782Z,4.82
2022-09-30T22:54:22.319Z,6.57
2022-09-30T22:56:51.878Z,6.55
2022-09-30T22:59:24.123Z,6.70
2022-09-30T23:01:53.583Z,7.30
2022-09-30T23:04:23.500Z,6.88
2022-09-30T23:06:53.782Z,5.53
2022-09-30T23:09:23.389Z,8.87
2022-09-30T23:11:54.485Z,13.05
2022-09-30T23:16:56.141Z,10.25
2022-09-30T23:19:25.668Z,11.40
2022-09-30T23:21:55.112Z,13.68
2022-09-30T23:24:24.579Z,11.27
2022-09-30T23:26:54.059Z,8.88
2022-09-30T23:29:26.137Z,9.68
2022-09-30T23:31:55.614Z,9.23
2022-09-30T23:34:25.136Z,8.00
2022-09-30T23:36:54.624Z,10.57
2022-09-30T23:39:24.109Z,9.27
2022-09-30T23:41:53.560Z,7.55
2022-09-30T23:44:24.536Z,7.15
2022-09-30T23:47:09.085Z,7.53
2022-09-30T23:49:38.965Z,7.97
2022-09-30T23:52:12.753Z,8.90
2022-09-30T23:54:42.746Z,7.47
2022-09-30T23:57:12.356Z,6.55
2022-09-30T23:59:41.915Z,6.57
